»·PEaware :: UAL576 KYKM-KOTH

UAL576 :: KYKM-KOTH

FLIGHT INFORMATION

Flight Status: Arrived
Operator:
United Airlines
More flights by this operator :: More flights under this callsign
Pilot: Anonymous 8274 (8274)
Aircraft: BOEING 737-300
(B733)
More flights by this aircraft type
Origin: KYKM Yakima Air Term/Mcallister
United States
Destination: KOTH North Bend Mun
United States
More flights between these airports :: More routes between these airports
Route: GROMO4 GUBSE LTJ J143 EUG V121 OTH
File this flight plan on PilotEdge
Remarks:
Altitude:
(Current/Filed)
22,000ft
Speed:
(Current/Filed)
440kts
Departed: 17-Nov-17 09:09 PM
Arrived: 17-Nov-17 10:05 PM
Distance/Time
Traveled:
246nm/0:56
Distance/Time
To Go:
Arrived

Flight Plot

Page will automatically refresh every two minutes.

Flight plan parsing failed; only flown route is shown


Map Options




Map Legend


Flown Route
Filed Route
Departure Airport
Arrival Airport
Navaid (VOR, NDB)
Fix

Horizontal Profiles

Position Reports

Time Latitude Longitude Heading Altitude Ground
Speed
17-Nov-17 20:34 46.569755 -120.538906 0 1074ft 0kts
17-Nov-17 20:35 46.569755 -120.538906 0 1074ft 0kts
17-Nov-17 20:36 46.569755 -120.538906 0 1074ft 0kts
17-Nov-17 20:37 46.569755 -120.538906 0 1074ft 0kts
17-Nov-17 20:38 46.569755 -120.538906 0 1074ft 0kts
17-Nov-17 20:39 46.569755 -120.538906 0 1074ft 0kts
17-Nov-17 20:40 46.569755 -120.538906 0 1074ft 0kts
17-Nov-17 20:41 46.569755 -120.538906 0 1074ft 0kts
17-Nov-17 20:42 46.569755 -120.538906 0 1074ft 0kts
17-Nov-17 20:43 46.569755 -120.538906 0 1074ft 0kts
17-Nov-17 20:44 46.569755 -120.538906 0 1074ft 0kts
17-Nov-17 20:45 46.569755 -120.538906 0 1074ft 0kts
17-Nov-17 20:46 46.569755 -120.538906 0 1074ft 0kts
17-Nov-17 20:47 46.569755 -120.538906 0 1074ft 0kts
17-Nov-17 20:48 46.569755 -120.538906 0 1074ft 0kts
17-Nov-17 20:49 46.569755 -120.538906 0 1074ft 0kts
17-Nov-17 20:50 46.569755 -120.538906 0 1074ft 0kts
17-Nov-17 20:51 46.569755 -120.538906 0 1074ft 0kts
17-Nov-17 20:52 46.569755 -120.538906 0 1074ft 0kts
17-Nov-17 20:53 46.569755 -120.538906 0 1074ft 0kts
17-Nov-17 20:54 46.569755 -120.538906 0 1074ft 0kts
17-Nov-17 20:55 46.569755 -120.538906 0 1074ft 0kts
17-Nov-17 20:56 46.569755 -120.538906 0 1074ft 0kts
17-Nov-17 20:57 46.569755 -120.538906 0 1074ft 0kts
17-Nov-17 20:58 46.569670 -120.538901 339 1074ft 1kts
17-Nov-17 20:59 46.569552 -120.538346 232 1074ft 0kts
17-Nov-17 21:00 46.569552 -120.538346 232 1074ft 0kts
17-Nov-17 21:01 46.569552 -120.538346 232 1074ft 0kts
17-Nov-17 21:02 46.569552 -120.538346 232 1074ft 0kts
17-Nov-17 21:03 46.569552 -120.538346 232 1074ft 0kts
17-Nov-17 21:04 46.569552 -120.538347 232 1074ft 0kts
17-Nov-17 21:05 46.569552 -120.538347 232 1074ft 0kts
17-Nov-17 21:06 46.569065 -120.539435 239 1074ft 0kts
17-Nov-17 21:07 46.569018 -120.539556 240 1074ft 0kts
17-Nov-17 21:08 46.568598 -120.539122 109 1074ft 13kts
17-Nov-17 21:09 46.566477 -120.531544 174 1074ft 0kts
17-Nov-17 21:10 46.566473 -120.531544 173 1074ft 0kts
17-Nov-17 21:11 46.565667 -120.532072 291 1074ft 0kts
17-Nov-17 21:12 46.565667 -120.532072 291 1074ft 0kts
17-Nov-17 21:13 46.565826 -120.532674 290 1074ft 19kts
17-Nov-17 21:14 46.577224 -120.579227 287 2122ft 165kts
17-Nov-17 21:15 46.561189 -120.651131 207 3178ft 227kts
17-Nov-17 21:16 46.500290 -120.636529 148 5652ft 235kts
17-Nov-17 21:17 46.445013 -120.573593 156 7966ft 275kts
17-Nov-17 21:18 46.371084 -120.599408 212 10344ft 300kts
17-Nov-17 21:19 46.289720 -120.662338 211 12165ft 350kts
17-Nov-17 21:20 46.202100 -120.729765 212 14838ft 364kts
17-Nov-17 21:21 46.111687 -120.799116 213 17249ft 376kts
17-Nov-17 21:22 46.018010 -120.870697 213 19477ft 388kts
17-Nov-17 21:23 45.922021 -120.943760 213 21535ft 398kts
17-Nov-17 21:24 45.825270 -121.016942 213 22331ft 415kts
17-Nov-17 21:25 45.727022 -121.091068 213 22347ft 417kts
17-Nov-17 21:26 45.643356 -121.197249 230 22348ft 405kts
17-Nov-17 21:27 45.565674 -121.305366 229 22344ft 406kts
17-Nov-17 21:28 45.484849 -121.416563 229 22346ft 406kts
17-Nov-17 21:29 45.403729 -121.527666 229 22346ft 406kts
17-Nov-17 21:30 45.321865 -121.639315 228 22352ft 409kts
17-Nov-17 21:31 45.241443 -121.748726 228 22347ft 409kts
17-Nov-17 21:32 45.159535 -121.859519 228 22369ft 410kts
17-Nov-17 21:33 45.093926 -121.947918 228 22374ft 410kts
17-Nov-17 21:34 45.027282 -122.037410 228 22373ft 410kts
17-Nov-17 21:35 44.944933 -122.147575 228 22372ft 409kts
17-Nov-17 21:36 44.866203 -122.252246 228 22369ft 409kts
17-Nov-17 21:37 44.783835 -122.361399 228 22374ft 409kts
17-Nov-17 21:38 44.701283 -122.470473 228 22373ft 409kts
17-Nov-17 21:39 44.618582 -122.579297 228 22373ft 409kts
17-Nov-17 21:40 44.536643 -122.686791 227 22369ft 409kts
17-Nov-17 21:41 44.453782 -122.795040 227 22373ft 409kts
17-Nov-17 21:42 44.370550 -122.903233 227 22392ft 408kts
17-Nov-17 21:43 44.287345 -123.010952 227 22401ft 408kts
17-Nov-17 21:44 44.204961 -123.117178 227 22400ft 408kts
17-Nov-17 21:45 44.122709 -123.222821 227 22374ft 409kts
17-Nov-17 21:46 44.041607 -123.330883 229 22373ft 408kts
17-Nov-17 21:47 43.960977 -123.440235 229 22373ft 408kts
17-Nov-17 21:48 43.882074 -123.546577 229 22340ft 409kts
17-Nov-17 21:49 43.802339 -123.653695 228 20341ft 396kts
17-Nov-17 21:50 43.724612 -123.758191 228 18231ft 386kts
17-Nov-17 21:51 43.648788 -123.859561 227 16139ft 377kts
17-Nov-17 21:52 43.569063 -123.947606 205 14060ft 377kts
17-Nov-17 21:53 43.537399 -124.058804 301 11952ft 341kts
17-Nov-17 21:54 43.622293 -124.099336 351 9860ft 329kts
17-Nov-17 21:55 43.687548 -124.154216 276 7731ft 285kts
17-Nov-17 21:56 43.675075 -124.257798 257 6223ft 273kts
17-Nov-17 21:57 43.653579 -124.354891 224 4240ft 264kts
17-Nov-17 21:58 43.604216 -124.426387 213 2950ft 234kts
17-Nov-17 21:59 43.559169 -124.470441 213 3041ft 179kts
17-Nov-17 22:00 43.517769 -124.504789 192 2990ft 173kts
17-Nov-17 22:01 43.470976 -124.520519 192 3000ft 173kts
17-Nov-17 22:02 43.424158 -124.533586 172 2993ft 172kts
17-Nov-17 22:03 43.376919 -124.524278 170 3000ft 171kts
17-Nov-17 22:04 43.329877 -124.514668 165 2997ft 171kts
17-Nov-17 22:05 43.330090 -124.466445 51 2314ft 175kts
17-Nov-17 22:06 43.355005 -124.413124 62 1706ft 165kts
17-Nov-17 22:07 43.375469 -124.358555 72 1703ft 159kts
17-Nov-17 22:08 43.395902 -124.308704 62 853ft 147kts
17-Nov-17 22:09 43.414169 -124.261990 63 82ft 137kts
17-Nov-17 22:10 43.420439 -124.243587 241 11ft 17kts
17-Nov-17 22:11 43.417573 -124.249447 157 11ft 15kts
17-Nov-17 22:12 43.416755 -124.249121 225 11ft 0kts
17-Nov-17 22:13 43.416755 -124.249121 225 11ft 0kts
17-Nov-17 22:14 43.416755 -124.249121 225 11ft 0kts
17-Nov-17 22:15 43.416755 -124.249121 225 11ft 0kts
17-Nov-17 22:16 43.416755 -124.249121 225 11ft 0kts
17-Nov-17 22:17 43.416755 -124.249121 225 11ft 0kts
17-Nov-17 22:18 43.416755 -124.249121 225 11ft 0kts
17-Nov-17 22:19 43.416755 -124.249121 225 11ft 0kts
17-Nov-17 22:20 43.416755 -124.249121 225 11ft 0kts
17-Nov-17 22:21 43.416755 -124.249121 225 11ft 0kts
17-Nov-17 22:22 43.416755 -124.249121 225 11ft 0kts
17-Nov-17 22:23 43.416755 -124.249121 225 11ft 0kts
17-Nov-17 22:24 43.416755 -124.249121 225 11ft 0kts
17-Nov-17 22:25 43.416755 -124.249121 225 11ft 0kts

Navigation Log

Ident Type
Flight plan parsing failed, navigation log unavailable